sensor_id;sensor_type;location;lat;lon;timestamp;pressure;altitude;pressure_sealevel;temperature;humidity
55044;BME280;54902;50.420;18.854;2023-04-08T00:00:03;101487.04;;;4.11;81.98
55044;BME280;54902;50.420;18.854;2023-04-08T00:00:37;101489.74;;;4.11;81.98
55044;BME280;54902;50.420;18.854;2023-04-08T00:01:07;101495.14;;;4.11;81.96
55044;BME280;54902;50.420;18.854;2023-04-08T00:01:38;101487.04;;;4.11;81.94
55044;BME280;54902;50.420;18.854;2023-04-08T00:02:09;101482.58;;;4.10;81.93
55044;BME280;54902;50.420;18.854;2023-04-08T00:02:41;101492.52;;;4.10;81.97
55044;BME280;54902;50.420;18.854;2023-04-08T00:03:12;101492.52;;;4.10;81.96
55044;BME280;54902;50.420;18.854;2023-04-08T00:03:43;101490.67;;;4.10;81.96
55044;BME280;54902;50.420;18.854;2023-04-08T00:04:14;101495.22;;;4.10;81.98
55044;BME280;54902;50.420;18.854;2023-04-08T00:04:45;101488.91;;;4.09;81.95
55044;BME280;54902;50.420;18.854;2023-04-08T00:05:16;101494.32;;;4.09;81.95
55044;BME280;54902;50.420;18.854;2023-04-08T00:05:47;101488.99;;;4.08;81.94
55044;BME280;54902;50.420;18.854;2023-04-08T00:06:18;101491.63;;;4.09;81.93
55044;BME280;54902;50.420;18.854;2023-04-08T00:06:49;101495.30;;;4.08;81.94
55044;BME280;54902;50.420;18.854;2023-04-08T00:07:20;101497.03;;;4.09;81.94
55044;BME280;54902;50.420;18.854;2023-04-08T00:07:51;101498.00;;;4.08;81.94
55044;BME280;54902;50.420;18.854;2023-04-08T00:08:22;101502.51;;;4.08;81.94
55044;BME280;54902;50.420;18.854;2023-04-08T00:08:53;101503.41;;;4.08;81.92
55044;BME280;54902;50.420;18.854;2023-04-08T00:09:25;101491.77;;;4.06;81.91
55044;BME280;54902;50.420;18.854;2023-04-08T00:09:56;101495.34;;;4.07;81.90
55044;BME280;54902;50.420;18.854;2023-04-08T00:10:27;101499.88;;;4.06;81.90
55044;BME280;54902;50.420;18.854;2023-04-08T00:10:58;101501.64;;;4.07;81.91
55044;BME280;54902;50.420;18.854;2023-04-08T00:11:28;101494.48;;;4.06;81.91
55044;BME280;54902;50.420;18.854;2023-04-08T00:12:00;101499.88;;;4.06;81.92
55044;BME280;54902;50.420;18.854;2023-04-08T00:12:32;101497.17;;;4.06;81.90
55044;BME280;54902;50.420;18.854;2023-04-08T00:13:03;101496.32;;;4.06;81.89
55044;BME280;54902;50.420;18.854;2023-04-08T00:13:34;101508.94;;;4.05;81.90
55044;BME280;54902;50.420;18.854;2023-04-08T00:14:05;101506.23;;;4.05;81.89
55044;BME280;54902;50.420;18.854;2023-04-08T00:14:36;101506.23;;;4.05;81.92
55044;BME280;54902;50.420;18.854;2023-04-08T00:15:08;101507.16;;;4.04;81.89
55044;BME280;54902;50.420;18.854;2023-04-08T00:15:40;101498.12;;;4.05;81.87
55044;BME280;54902;50.420;18.854;2023-04-08T00:16:11;101507.13;;;4.06;81.86
55044;BME280;54902;50.420;18.854;2023-04-08T00:16:42;101508.06;;;4.05;81.85
55044;BME280;54902;50.420;18.854;2023-04-08T00:17:13;101506.30;;;4.04;81.86
55044;BME280;54902;50.420;18.854;2023-04-08T00:17:44;101499.20;;;4.02;81.94
55044;BME280;54902;50.420;18.854;2023-04-08T00:18:16;101504.47;;;4.04;81.88
55044;BME280;54902;50.420;18.854;2023-04-08T00:18:47;101500.91;;;4.04;81.88
55044;BME280;54902;50.420;18.854;2023-04-08T00:19:18;101512.57;;;4.04;81.88
55044;BME280;54902;50.420;18.854;2023-04-08T00:19:50;101507.16;;;4.04;81.84
55044;BME280;54902;50.420;18.854;2023-04-08T00:20:23;101510.84;;;4.03;81.87
55044;BME280;54902;50.420;18.854;2023-04-08T00:20:54;101500.03;;;4.03;81.88
55044;BME280;54902;50.420;18.854;2023-04-08T00:21:26;101516.25;;;4.03;81.85
55044;BME280;54902;50.420;18.854;2023-04-08T00:21:57;101516.25;;;4.03;81.86
55044;BME280;54902;50.420;18.854;2023-04-08T00:22:28;101513.55;;;4.03;81.85
55044;BME280;54902;50.420;18.854;2023-04-08T00:22:59;101514.49;;;4.03;81.85
55044;BME280;54902;50.420;18.854;2023-04-08T00:23:30;101516.25;;;4.03;81.82
55044;BME280;54902;50.420;18.854;2023-04-08T00:24:01;101511.79;;;4.03;81.82
55044;BME280;54902;50.420;18.854;2023-04-08T00:24:33;101519.89;;;4.03;81.80
55044;BME280;54902;50.420;18.854;2023-04-08T00:25:04;101513.63;;;4.02;81.80
55044;BME280;54902;50.420;18.854;2023-04-08T00:25:39;101512.73;;;4.02;81.79
55044;BME280;54902;50.420;18.854;2023-04-08T00:26:10;101518.13;;;4.02;81.79
55044;BME280;54902;50.420;18.854;2023-04-08T00:26:41;101523.53;;;4.02;81.77
55044;BME280;54902;50.420;18.854;2023-04-08T00:27:12;101513.66;;;4.01;81.78
55044;BME280;54902;50.420;18.854;2023-04-08T00:27:43;101514.63;;;4.00;81.79
55044;BME280;54902;50.420;18.854;2023-04-08T00:28:14;101517.26;;;4.01;81.79
55044;BME280;54902;50.420;18.854;2023-04-08T00:28:45;101527.19;;;4.01;81.79
55044;BME280;54902;50.420;18.854;2023-04-08T00:29:16;101520.84;;;4.02;81.79
55044;BME280;54902;50.420;18.854;2023-04-08T00:29:47;101519.07;;;4.01;81.76
55044;BME280;54902;50.420;18.854;2023-04-08T00:30:18;101521.77;;;4.01;81.78
55044;BME280;54902;50.420;18.854;2023-04-08T00:30:49;101521.73;;;4.02;81.79
55044;BME280;54902;50.420;18.854;2023-04-08T00:31:21;101513.66;;;4.01;81.82
55044;BME280;54902;50.420;18.854;2023-04-08T00:31:52;101519.07;;;4.01;81.83
55044;BME280;54902;50.420;18.854;2023-04-08T00:32:23;101527.19;;;4.01;81.83
55044;BME280;54902;50.420;18.854;2023-04-08T00:32:54;101528.15;;;4.00;81.84
55044;BME280;54902;50.420;18.854;2023-04-08T00:33:25;101522.75;;;4.00;81.81
55044;BME280;54902;50.420;18.854;2023-04-08T00:33:56;101526.31;;;4.00;81.80
55044;BME280;54902;50.420;18.854;2023-04-08T00:34:27;101530.85;;;4.00;81.80
55044;BME280;54902;50.420;18.854;2023-04-08T00:34:58;101533.48;;;4.01;81.82
55044;BME280;54902;50.420;18.854;2023-04-08T00:35:29;101524.55;;;3.99;81.81
55044;BME280;54902;50.420;18.854;2023-04-08T00:36:00;101529.09;;;3.99;81.79
55044;BME280;54902;50.420;18.854;2023-04-08T00:36:31;101534.49;;;3.99;81.77
55044;BME280;54902;50.420;18.854;2023-04-08T00:37:03;101533.63;;;3.98;81.75
55044;BME280;54902;50.420;18.854;2023-04-08T00:37:33;101527.33;;;3.98;81.69
55044;BME280;54902;50.420;18.854;2023-04-08T00:38:04;101523.68;;;3.99;81.76
55044;BME280;54902;50.420;18.854;2023-04-08T00:38:37;101525.52;;;3.98;81.74
55044;BME280;54902;50.420;18.854;2023-04-08T00:39:08;101527.33;;;3.98;81.75
55044;BME280;54902;50.420;18.854;2023-04-08T00:39:39;101533.63;;;3.98;81.74
55044;BME280;54902;50.420;18.854;2023-04-08T00:40:11;101533.63;;;3.98;81.74
55044;BME280;54902;50.420;18.854;2023-04-08T00:40:42;101529.17;;;3.97;81.75
55044;BME280;54902;50.420;18.854;2023-04-08T00:41:13;101530.02;;;3.98;81.75
55044;BME280;54902;50.420;18.854;2023-04-08T00:41:44;101532.73;;;3.98;81.75
55044;BME280;54902;50.420;18.854;2023-04-08T00:42:16;101526.46;;;3.97;81.72
55044;BME280;54902;50.420;18.854;2023-04-08T00:42:47;101532.73;;;3.98;81.75
55044;BME280;54902;50.420;18.854;2023-04-08T00:43:18;101521.92;;;3.98;81.73
55044;BME280;54902;50.420;18.854;2023-04-08T00:43:51;101530.02;;;3.98;81.71
55044;BME280;54902;50.420;18.854;2023-04-08T00:44:22;101530.97;;;3.97;81.71
55044;BME280;54902;50.420;18.854;2023-04-08T00:44:53;101525.56;;;3.97;81.70
55044;BME280;54902;50.420;18.854;2023-04-08T00:45:25;101528.27;;;3.97;81.70
55044;BME280;54902;50.420;18.854;2023-04-08T00:45:56;101532.73;;;3.98;81.72
55044;BME280;54902;50.420;18.854;2023-04-08T00:46:27;101528.27;;;3.97;81.72
55044;BME280;54902;50.420;18.854;2023-04-08T00:46:58;101525.56;;;3.97;81.71
55044;BME280;54902;50.420;18.854;2023-04-08T00:47:30;101532.73;;;3.98;81.73
55044;BME280;54902;50.420;18.854;2023-04-08T00:48:02;101524.63;;;3.98;81.72
55044;BME280;54902;50.420;18.854;2023-04-08T00:48:33;101532.73;;;3.98;81.72
55044;BME280;54902;50.420;18.854;2023-04-08T00:49:05;101532.73;;;3.98;81.72
55044;BME280;54902;50.420;18.854;2023-04-08T00:49:37;101514.75;;;3.97;81.71
55044;BME280;54902;50.420;18.854;2023-04-08T00:50:08;101520.15;;;3.97;81.71
55044;BME280;54902;50.420;18.854;2023-04-08T00:50:43;101520.15;;;3.97;81.72
55044;BME280;54902;50.420;18.854;2023-04-08T00:51:16;101522.00;;;3.96;81.71
55044;BME280;54902;50.420;18.854;2023-04-08T00:51:47;101527.39;;;3.96;81.74
55044;BME280;54902;50.420;18.854;2023-04-08T00:52:18;101524.70;;;3.96;81.72
55044;BME280;54902;50.420;18.854;2023-04-08T00:52:49;101527.39;;;3.96;81.72
55044;BME280;54902;50.420;18.854;2023-04-08T00:53:20;101528.27;;;3.97;81.74
55044;BME280;54902;50.420;18.854;2023-04-08T00:53:51;101523.83;;;3.96;81.72
55044;BME280;54902;50.420;18.854;2023-04-08T00:54:22;101537.34;;;3.96;81.71
55044;BME280;54902;50.420;18.854;2023-04-08T00:54:54;101522.93;;;3.95;81.69
55044;BME280;54902;50.420;18.854;2023-04-08T00:55:25;101525.63;;;3.95;81.68
55044;BME280;54902;50.420;18.854;2023-04-08T00:55:56;101531.95;;;3.96;81.68
55044;BME280;54902;50.420;18.854;2023-04-08T00:56:30;101529.23;;;3.96;81.67
55044;BME280;54902;50.420;18.854;2023-04-08T00:57:03;101523.83;;;3.96;81.68
55044;BME280;54902;50.420;18.854;2023-04-08T00:57:35;101530.17;;;3.95;81.66
55044;BME280;54902;50.420;18.854;2023-04-08T00:58:06;101526.54;;;3.96;81.67
55044;BME280;54902;50.420;18.854;2023-04-08T00:58:37;101523.83;;;3.96;81.67
55044;BME280;54902;50.420;18.854;2023-04-08T00:59:09;101521.20;;;3.94;81.67
55044;BME280;54902;50.420;18.854;2023-04-08T00:59:40;101524.77;;;3.95;81.65
55044;BME280;54902;50.420;18.854;2023-04-08T01:00:13;101525.71;;;3.94;81.63
55044;BME280;54902;50.420;18.854;2023-04-08T01:00:50;101532.88;;;3.95;81.62
55044;BME280;54902;50.420;18.854;2023-04-08T01:02:13;101533.81;;;3.94;81.59
55044;BME280;54902;50.420;18.854;2023-04-08T01:06:29;101530.33;;;3.92;81.56
55044;BME280;54902;50.420;18.854;2023-04-08T01:07:48;101541.14;;;3.92;81.54
55044;BME280;54902;50.420;18.854;2023-04-08T01:08:19;101524.02;;;3.91;81.54
55044;BME280;54902;50.420;18.854;2023-04-08T01:08:52;101532.13;;;3.91;81.56
55044;BME280;54902;50.420;18.854;2023-04-08T01:09:28;101537.52;;;3.91;81.54
55044;BME280;54902;50.420;18.854;2023-04-08T01:10:44;101533.06;;;3.90;81.54
55044;BME280;54902;50.420;18.854;2023-04-08T01:11:19;101534.84;;;3.91;81.54
55044;BME280;54902;50.420;18.854;2023-04-08T01:11:52;101542.94;;;3.91;81.53
55044;BME280;54902;50.420;18.854;2023-04-08T01:12:29;101544.77;;;3.91;81.55
55044;BME280;54902;50.420;18.854;2023-04-08T01:13:08;101539.37;;;3.91;81.54
55044;BME280;54902;50.420;18.854;2023-04-08T01:13:44;101544.77;;;3.91;81.53
55044;BME280;54902;50.420;18.854;2023-04-08T01:14:20;101535.77;;;3.90;81.52
55044;BME280;54902;50.420;18.854;2023-04-08T01:15:00;101539.37;;;3.91;81.53
55044;BME280;54902;50.420;18.854;2023-04-08T01:15:35;101534.91;;;3.90;81.53
55044;BME280;54902;50.420;18.854;2023-04-08T01:16:11;101540.30;;;3.90;81.52
55044;BME280;54902;50.420;18.854;2023-04-08T01:16:44;101548.41;;;3.90;81.50
55044;BME280;54902;50.420;18.854;2023-04-08T01:17:18;101537.60;;;3.90;81.51
55044;BME280;54902;50.420;18.854;2023-04-08T01:17:53;101541.17;;;3.90;81.49
55044;BME280;54902;50.420;18.854;2023-04-08T01:18:25;101545.72;;;3.90;81.50
55044;BME280;54902;50.420;18.854;2023-04-08T01:18:57;101543.01;;;3.90;81.47
55044;BME280;54902;50.420;18.854;2023-04-08T01:19:32;101550.26;;;3.89;81.46
55044;BME280;54902;50.420;18.854;2023-04-08T01:20:04;101554.76;;;3.89;81.43
55044;BME280;54902;50.420;18.854;2023-04-08T01:20:38;101531.41;;;3.88;81.45
55044;BME280;54902;50.420;18.854;2023-04-08T01:21:12;101544.92;;;3.88;81.44
55044;BME280;54902;50.420;18.854;2023-04-08T01:21:45;101549.35;;;3.89;81.43
55044;BME280;54902;50.420;18.854;2023-04-08T01:23:52;101545.86;;;3.87;81.41
55044;BME280;54902;50.420;18.854;2023-04-08T01:24:29;101549.43;;;3.87;81.38
55044;BME280;54902;50.420;18.854;2023-04-08T01:25:09;101541.31;;;3.87;81.37
55044;BME280;54902;50.420;18.854;2023-04-08T01:25:51;101536.84;;;3.86;81.39
55044;BME280;54902;50.420;18.854;2023-04-08T01:26:24;101541.40;;;3.86;81.37
55044;BME280;54902;50.420;18.854;2023-04-08T01:26:57;101538.69;;;3.86;81.37
55044;BME280;54902;50.420;18.854;2023-04-08T01:27:29;101540.53;;;3.85;81.36
55044;BME280;54902;50.420;18.854;2023-04-08T01:28:10;101543.23;;;3.85;81.35
55044;BME280;54902;50.420;18.854;2023-04-08T01:28:42;101547.73;;;3.85;81.33
55044;BME280;54902;50.420;18.854;2023-04-08T01:29:14;101551.34;;;3.85;81.33
55044;BME280;54902;50.420;18.854;2023-04-08T01:29:46;101544.09;;;3.86;81.32
55044;BME280;54902;50.420;18.854;2023-04-08T01:30:19;101549.50;;;3.86;81.32
55044;BME280;54902;50.420;18.854;2023-04-08T01:30:54;101548.64;;;3.85;81.34
55044;BME280;54902;50.420;18.854;2023-04-08T01:31:26;101553.14;;;3.85;81.31
55044;BME280;54902;50.420;18.854;2023-04-08T01:31:58;101542.34;;;3.85;81.30
55044;BME280;54902;50.420;18.854;2023-04-08T01:32:32;101545.11;;;3.83;81.29
55044;BME280;54902;50.420;18.854;2023-04-08T01:33:04;101554.11;;;3.84;81.28
55044;BME280;54902;50.420;18.854;2023-04-08T01:33:36;101548.70;;;3.84;81.28
55044;BME280;54902;50.420;18.854;2023-04-08T01:34:07;101554.11;;;3.84;81.28
55044;BME280;54902;50.420;18.854;2023-04-08T01:34:40;101547.73;;;3.85;81.23
55044;BME280;54902;50.420;18.854;2023-04-08T01:35:14;101550.52;;;3.83;81.24
55044;BME280;54902;50.420;18.854;2023-04-08T01:35:46;101551.41;;;3.84;81.26
55044;BME280;54902;50.420;18.854;2023-04-08T01:36:19;101549.64;;;3.83;81.25
55044;BME280;54902;50.420;18.854;2023-04-08T01:36:51;101553.29;;;3.82;81.25
55044;BME280;54902;50.420;18.854;2023-04-08T01:37:24;101555.13;;;3.81;81.23
55044;BME280;54902;50.420;18.854;2023-04-08T01:37:57;101545.17;;;3.82;81.22
55044;BME280;54902;50.420;18.854;2023-04-08T01:38:29;101560.52;;;3.81;81.22
55044;BME280;54902;50.420;18.854;2023-04-08T01:39:02;101553.29;;;3.82;81.21
55044;BME280;54902;50.420;18.854;2023-04-08T01:39:36;101550.59;;;3.82;81.22
55044;BME280;54902;50.420;18.854;2023-04-08T01:40:10;101551.52;;;3.81;81.21
55044;BME280;54902;50.420;18.854;2023-04-08T01:40:42;101552.41;;;3.81;81.22
55044;BME280;54902;50.420;18.854;2023-04-08T01:41:16;101554.23;;;3.81;81.20
55044;BME280;54902;50.420;18.854;2023-04-08T01:41:49;101547.05;;;3.80;81.20
55044;BME280;54902;50.420;18.854;2023-04-08T01:42:24;101560.56;;;3.80;81.19
55044;BME280;54902;50.420;18.854;2023-04-08T01:42:57;101548.89;;;3.79;81.19
55044;BME280;54902;50.420;18.854;2023-04-08T01:43:28;101548.03;;;3.79;81.20
55044;BME280;54902;50.420;18.854;2023-04-08T01:44:03;101557.86;;;3.80;81.19
55044;BME280;54902;50.420;18.854;2023-04-08T01:44:35;101550.72;;;3.79;81.17
55044;BME280;54902;50.420;18.854;2023-04-08T01:45:08;101560.56;;;3.80;81.18
55044;BME280;54902;50.420;18.854;2023-04-08T01:45:44;101552.46;;;3.80;81.18
55044;BME280;54902;50.420;18.854;2023-04-08T01:46:15;101557.86;;;3.80;81.18
55044;BME280;54902;50.420;18.854;2023-04-08T01:46:47;101557.94;;;3.78;81.17
55044;BME280;54902;50.420;18.854;2023-04-08T01:47:18;101566.94;;;3.79;81.16
55044;BME280;54902;50.420;18.854;2023-04-08T01:47:50;101555.23;;;3.78;81.16
55044;BME280;54902;50.420;18.854;2023-04-08T01:48:23;101563.34;;;3.78;81.16
55044;BME280;54902;50.420;18.854;2023-04-08T01:48:56;101553.43;;;3.79;81.17
55044;BME280;54902;50.420;18.854;2023-04-08T01:49:29;101565.18;;;3.78;81.16
55044;BME280;54902;50.420;18.854;2023-04-08T01:50:01;101567.88;;;3.78;81.15
55044;BME280;54902;50.420;18.854;2023-04-08T01:50:33;101563.34;;;3.78;81.14
55044;BME280;54902;50.420;18.854;2023-04-08T01:51:05;101556.21;;;3.77;81.12
55044;BME280;54902;50.420;18.854;2023-04-08T01:51:37;101560.71;;;3.77;81.13
55044;BME280;54902;50.420;18.854;2023-04-08T01:52:09;101561.65;;;3.76;81.10
55044;BME280;54902;50.420;18.854;2023-04-08T01:52:45;101565.24;;;3.76;81.09
55044;BME280;54902;50.420;18.854;2023-04-08T01:53:17;101553.50;;;3.77;81.08
55044;BME280;54902;50.420;18.854;2023-04-08T01:53:48;101558.08;;;3.75;81.07
55044;BME280;54902;50.420;18.854;2023-04-08T01:54:20;101561.65;;;3.76;81.05
55044;BME280;54902;50.420;18.854;2023-04-08T01:54:51;101565.24;;;3.76;81.04
55044;BME280;54902;50.420;18.854;2023-04-08T01:55:23;101560.85;;;3.74;81.03
55044;BME280;54902;50.420;18.854;2023-04-08T01:55:57;101559.02;;;3.74;81.01
55044;BME280;54902;50.420;18.854;2023-04-08T01:56:35;101559.02;;;3.74;81.00
55044;BME280;54902;50.420;18.854;2023-04-08T01:57:11;101551.88;;;3.73;81.00
55044;BME280;54902;50.420;18.854;2023-04-08T01:57:48;101566.26;;;3.74;80.96
55044;BME280;54902;50.420;18.854;2023-04-08T01:58:21;101550.04;;;3.74;80.94
55044;BME280;54902;50.420;18.854;2023-04-08T01:58:53;101564.49;;;3.73;80.93
55044;BME280;54902;50.420;18.854;2023-04-08T01:59:29;101562.73;;;3.72;80.90
55044;BME280;54902;50.420;18.854;2023-04-08T02:00:08;101561.87;;;3.71;80.86
55044;BME280;54902;50.420;18.854;2023-04-08T02:00:41;101562.80;;;3.70;80.86
55044;BME280;54902;50.420;18.854;2023-04-08T02:01:16;101561.87;;;3.71;80.85
55044;BME280;54902;50.420;18.854;2023-04-08T02:01:49;101559.22;;;3.70;80.84
55044;BME280;54902;50.420;18.854;2023-04-08T02:02:24;101560.17;;;3.69;80.83
55044;BME280;54902;50.420;18.854;2023-04-08T02:02:57;101561.10;;;3.68;80.82
55044;BME280;54902;50.420;18.854;2023-04-08T02:03:30;101567.41;;;3.68;80.79
55044;BME280;54902;50.420;18.854;2023-04-08T02:04:03;101563.80;;;3.68;80.77
55044;BME280;54902;50.420;18.854;2023-04-08T02:04:34;101566.50;;;3.68;80.73
55044;BME280;54902;50.420;18.854;2023-04-08T02:05:06;101562.07;;;3.67;80.72
55044;BME280;54902;50.420;18.854;2023-04-08T02:05:38;101563.02;;;3.66;80.73
55044;BME280;54902;50.420;18.854;2023-04-08T02:06:09;101563.88;;;3.66;80.71
55044;BME280;54902;50.420;18.854;2023-04-08T02:06:40;101568.48;;;3.64;80.71
55044;BME280;54902;50.420;18.854;2023-04-08T02:07:11;101566.64;;;3.65;80.72
55044;BME280;54902;50.420;18.854;2023-04-08T02:07:42;101561.32;;;3.63;80.71
55044;BME280;54902;50.420;18.854;2023-04-08T02:08:16;101563.16;;;3.63;80.67
55044;BME280;54902;50.420;18.854;2023-04-08T02:08:47;101567.66;;;3.62;80.66
55044;BME280;54902;50.420;18.854;2023-04-08T02:09:17;101572.20;;;3.62;80.65
55044;BME280;54902;50.420;18.854;2023-04-08T02:09:49;101558.76;;;3.60;80.66
55044;BME280;54902;50.420;18.854;2023-04-08T02:10:21;101567.73;;;3.61;80.66
55044;BME280;54902;50.420;18.854;2023-04-08T02:10:51;101565.02;;;3.61;80.69
55044;BME280;54902;50.420;18.854;2023-04-08T02:11:22;101568.66;;;3.60;80.68
55044;BME280;54902;50.420;18.854;2023-04-08T02:11:55;101570.50;;;3.59;80.68
55044;BME280;54902;50.420;18.854;2023-04-08T02:12:27;101568.66;;;3.60;80.68
55044;BME280;54902;50.420;18.854;2023-04-08T02:12:58;101574.06;;;3.60;80.69
55044;BME280;54902;50.420;18.854;2023-04-08T02:13:31;101569.63;;;3.59;80.70
55044;BME280;54902;50.420;18.854;2023-04-08T02:14:03;101575.04;;;3.59;80.70
55044;BME280;54902;50.420;18.854;2023-04-08T02:14:34;101576.91;;;3.57;80.66
55044;BME280;54902;50.420;18.854;2023-04-08T02:15:05;101575.07;;;3.57;80.63
55044;BME280;54902;50.420;18.854;2023-04-08T02:15:42;101567.94;;;3.56;80.62
55044;BME280;54902;50.420;18.854;2023-04-08T02:16:30;101567.04;;;3.56;80.60
55044;BME280;54902;50.420;18.854;2023-04-08T02:17:51;101570.68;;;3.55;80.60
55044;BME280;54902;50.420;18.854;2023-04-08T02:18:25;101566.24;;;3.54;80.60
55044;BME280;54902;50.420;18.854;2023-04-08T02:19:07;101574.35;;;3.54;80.62
55044;BME280;54902;50.420;18.854;2023-04-08T02:19:45;101576.21;;;3.52;80.58
55044;BME280;54902;50.420;18.854;2023-04-08T02:20:26;101569.05;;;3.51;80.58
55044;BME280;54902;50.420;18.854;2023-04-08T02:21:02;101563.65;;;3.51;80.57
55044;BME280;54902;50.420;18.854;2023-04-08T02:21:47;101572.73;;;3.50;80.57
55044;BME280;54902;50.420;18.854;2023-04-08T02:22:28;101576.36;;;3.49;80.57
55044;BME280;54902;50.420;18.854;2023-04-08T02:23:47;101574.60;;;3.48;80.55
55044;BME280;54902;50.420;18.854;2023-04-08T02:24:21;101574.60;;;3.48;80.54
55044;BME280;54902;50.420;18.854;2023-04-08T02:24:52;101575.54;;;3.47;80.53
55044;BME280;54902;50.420;18.854;2023-04-08T02:25:24;101572.83;;;3.47;80.44
55044;BME280;54902;50.420;18.854;2023-04-08T02:25:56;101570.20;;;3.45;80.43
55044;BME280;54902;50.420;18.854;2023-04-08T02:26:27;101575.60;;;3.45;80.45
55044;BME280;54902;50.420;18.854;2023-04-08T02:26:59;101577.44;;;3.45;80.47
55044;BME280;54902;50.420;18.854;2023-04-08T02:27:33;101575.66;;;3.44;80.46
55044;BME280;54902;50.420;18.854;2023-04-08T02:28:06;101571.20;;;3.43;80.44
55044;BME280;54902;50.420;18.854;2023-04-08T02:28:40;101570.34;;;3.43;80.43
55044;BME280;54902;50.420;18.854;2023-04-08T02:29:14;101568.57;;;3.42;80.39
55044;BME280;54902;50.420;18.854;2023-04-08T02:29:46;101571.27;;;3.42;80.39
55044;BME280;54902;50.420;18.854;2023-04-08T02:30:19;101584.78;;;3.42;80.38
55044;BME280;54902;50.420;18.854;2023-04-08T02:30:51;101574.91;;;3.41;80.34
55044;BME280;54902;50.420;18.854;2023-04-08T02:31:25;101573.18;;;3.40;80.32
55044;BME280;54902;50.420;18.854;2023-04-08T02:31:57;101569.58;;;3.39;80.37
55044;BME280;54902;50.420;18.854;2023-04-08T02:32:30;101574.12;;;3.39;80.33
55044;BME280;54902;50.420;18.854;2023-04-08T02:33:03;101573.24;;;3.38;80.33
55044;BME280;54902;50.420;18.854;2023-04-08T02:33:37;101575.12;;;3.36;80.32
55044;BME280;54902;50.420;18.854;2023-04-08T02:34:11;101568.85;;;3.36;80.31
55044;BME280;54902;50.420;18.854;2023-04-08T02:34:43;101571.61;;;3.34;80.33
55044;BME280;54902;50.420;18.854;2023-04-08T02:35:16;101579.71;;;3.34;80.31
55044;BME280;54902;50.420;18.854;2023-04-08T02:35:51;101572.48;;;3.35;80.33
55044;BME280;54902;50.420;18.854;2023-04-08T02:36:26;101575.26;;;3.33;80.32
55044;BME280;54902;50.420;18.854;2023-04-08T02:36:57;101573.48;;;3.32;80.33
55044;BME280;54902;50.420;18.854;2023-04-08T02:37:29;101571.66;;;3.33;80.33
55044;BME280;54902;50.420;18.854;2023-04-08T02:38:01;101573.56;;;3.31;80.33
55044;BME280;54902;50.420;18.854;2023-04-08T02:38:32;101577.12;;;3.31;80.32
55044;BME280;54902;50.420;18.854;2023-04-08T02:39:03;101579.03;;;3.29;80.31
55044;BME280;54902;50.420;18.854;2023-04-08T02:39:34;101584.42;;;3.29;80.30
55044;BME280;54902;50.420;18.854;2023-04-08T02:40:49;101588.93;;;3.29;80.31
55044;BME280;54902;50.420;18.854;2023-04-08T02:41:20;101584.49;;;3.28;80.29
55044;BME280;54902;50.420;18.854;2023-04-08T02:41:51;101580.89;;;3.27;80.29
55044;BME280;54902;50.420;18.854;2023-04-08T02:42:22;101584.52;;;3.26;80.30
55044;BME280;54902;50.420;18.854;2023-04-08T02:42:54;101579.13;;;3.26;80.29
55044;BME280;54902;50.420;18.854;2023-04-08T02:43:25;101585.50;;;3.25;80.30
55044;BME280;54902;50.420;18.854;2023-04-08T02:44:03;101584.60;;;3.25;80.29
55044;BME280;54902;50.420;18.854;2023-04-08T02:44:35;101584.67;;;3.23;80.28
55044;BME280;54902;50.420;18.854;2023-04-08T02:45:06;101582.04;;;3.22;80.28
55044;BME280;54902;50.420;18.854;2023-04-08T02:45:40;101582.90;;;3.22;80.29
55044;BME280;54902;50.420;18.854;2023-04-08T02:46:11;101579.26;;;3.23;80.28
55044;BME280;54902;50.420;18.854;2023-04-08T02:46:42;101576.63;;;3.22;80.31
55044;BME280;54902;50.420;18.854;2023-04-08T02:47:13;101578.48;;;3.21;80.29
55044;BME280;54902;50.420;18.854;2023-04-08T02:47:45;101577.63;;;3.19;80.29
55044;BME280;54902;50.420;18.854;2023-04-08T02:48:16;101584.87;;;3.19;80.29
55044;BME280;54902;50.420;18.854;2023-04-08T02:48:47;101588.44;;;3.19;80.29
55044;BME280;54902;50.420;18.854;2023-04-08T02:49:18;101590.27;;;3.19;80.26
55044;BME280;54902;50.420;18.854;2023-04-08T02:49:49;101588.51;;;3.18;80.28
55044;BME280;54902;50.420;18.854;2023-04-08T02:50:24;101584.95;;;3.17;80.26
55044;BME280;54902;50.420;18.854;2023-04-08T02:50:55;101568.91;;;3.13;80.06
55044;BME280;54902;50.420;18.854;2023-04-08T02:51:26;101589.44;;;3.17;80.27
55044;BME280;54902;50.420;18.854;2023-04-08T02:51:57;101588.58;;;3.16;80.27
55044;BME280;54902;50.420;18.854;2023-04-08T02:52:28;101585.04;;;3.14;80.28
55044;BME280;54902;50.420;18.854;2023-04-08T02:52:59;101586.80;;;3.15;80.28
55044;BME280;54902;50.420;18.854;2023-04-08T02:53:30;101579.65;;;3.14;80.27
55044;BME280;54902;50.420;18.854;2023-04-08T02:54:01;101582.34;;;3.14;80.30
55044;BME280;54902;50.420;18.854;2023-04-08T02:54:32;101583.31;;;3.13;80.30
55044;BME280;54902;50.420;18.854;2023-04-08T02:55:04;101594.10;;;3.13;80.31
55044;BME280;54902;50.420;18.854;2023-04-08T02:55:39;101585.10;;;3.13;80.29
55044;BME280;54902;50.420;18.854;2023-04-08T02:56:10;101594.10;;;3.13;80.29
55044;BME280;54902;50.420;18.854;2023-04-08T02:56:41;101586.95;;;3.12;80.28
55044;BME280;54902;50.420;18.854;2023-04-08T02:57:12;101593.27;;;3.11;80.29
55044;BME280;54902;50.420;18.854;2023-04-08T02:57:43;101585.17;;;3.11;80.28
55044;BME280;54902;50.420;18.854;2023-04-08T02:58:14;101590.57;;;3.11;80.29
55044;BME280;54902;50.420;18.854;2023-04-08T02:58:45;101591.51;;;3.10;80.29
55044;BME280;54902;50.420;18.854;2023-04-08T02:59:16;101581.68;;;3.09;80.27
55044;BME280;54902;50.420;18.854;2023-04-08T02:59:47;101591.51;;;3.10;80.27